sensor_id;sensor_type;location;lat;lon;timestamp;P1;durP1;ratioP1;P2;durP2;ratioP2
6344;SDS011;3205;42.666;23.264;2024-02-26T00:01:01;25.77;;;13.53;;
6344;SDS011;3205;42.666;23.264;2024-02-26T00:03:28;25.50;;;13.50;;
6344;SDS011;3205;42.666;23.264;2024-02-26T00:05:54;17.13;;;12.37;;
6344;SDS011;3205;42.666;23.264;2024-02-26T00:08:21;22.23;;;12.80;;
6344;SDS011;3205;42.666;23.264;2024-02-26T00:10:48;21.77;;;12.13;;
6344;SDS011;3205;42.666;23.264;2024-02-26T00:13:14;19.27;;;10.80;;
6344;SDS011;3205;42.666;23.264;2024-02-26T00:15:41;22.63;;;11.43;;
6344;SDS011;3205;42.666;23.264;2024-02-26T00:18:07;21.90;;;11.23;;
6344;SDS011;3205;42.666;23.264;2024-02-26T00:20:33;18.37;;;11.13;;
6344;SDS011;3205;42.666;23.264;2024-02-26T00:23:03;20.73;;;11.43;;
6344;SDS011;3205;42.666;23.264;2024-02-26T00:25:30;26.20;;;15.07;;
6344;SDS011;3205;42.666;23.264;2024-02-26T00:27:56;33.77;;;17.10;;
6344;SDS011;3205;42.666;23.264;2024-02-26T00:30:23;34.07;;;16.93;;
6344;SDS011;3205;42.666;23.264;2024-02-26T00:32:50;30.97;;;15.37;;
6344;SDS011;3205;42.666;23.264;2024-02-26T00:35:16;31.37;;;15.37;;
6344;SDS011;3205;42.666;23.264;2024-02-26T00:37:45;37.67;;;16.37;;
6344;SDS011;3205;42.666;23.264;2024-02-26T00:40:12;38.47;;;16.13;;
6344;SDS011;3205;42.666;23.264;2024-02-26T00:42:38;34.60;;;15.87;;
6344;SDS011;3205;42.666;23.264;2024-02-26T00:45:10;33.73;;;15.60;;
6344;SDS011;3205;42.666;23.264;2024-02-26T00:47:37;32.47;;;14.80;;
6344;SDS011;3205;42.666;23.264;2024-02-26T00:50:06;26.40;;;14.97;;
6344;SDS011;3205;42.666;23.264;2024-02-26T00:52:33;33.17;;;14.63;;
6344;SDS011;3205;42.666;23.264;2024-02-26T00:54:59;23.80;;;13.10;;
6344;SDS011;3205;42.666;23.264;2024-02-26T00:57:26;23.53;;;13.33;;
6344;SDS011;3205;42.666;23.264;2024-02-26T00:59:52;27.97;;;13.83;;
6344;SDS011;3205;42.666;23.264;2024-02-26T01:02:20;26.53;;;14.03;;
6344;SDS011;3205;42.666;23.264;2024-02-26T01:04:47;21.40;;;13.00;;
6344;SDS011;3205;42.666;23.264;2024-02-26T01:07:14;24.40;;;12.77;;
6344;SDS011;3205;42.666;23.264;2024-02-26T01:09:40;20.30;;;11.90;;
6344;SDS011;3205;42.666;23.264;2024-02-26T01:12:06;23.17;;;11.73;;
6344;SDS011;3205;42.666;23.264;2024-02-26T01:14:32;18.20;;;10.53;;
6344;SDS011;3205;42.666;23.264;2024-02-26T01:16:59;15.17;;;10.60;;
6344;SDS011;3205;42.666;23.264;2024-02-26T01:19:25;18.53;;;11.40;;
6344;SDS011;3205;42.666;23.264;2024-02-26T01:21:52;21.27;;;11.53;;
6344;SDS011;3205;42.666;23.264;2024-02-26T01:24:19;18.10;;;10.60;;
6344;SDS011;3205;42.666;23.264;2024-02-26T01:26:45;18.47;;;10.83;;
6344;SDS011;3205;42.666;23.264;2024-02-26T01:29:11;22.03;;;11.97;;
6344;SDS011;3205;42.666;23.264;2024-02-26T01:31:38;19.57;;;11.73;;
6344;SDS011;3205;42.666;23.264;2024-02-26T01:34:04;18.23;;;10.60;;
6344;SDS011;3205;42.666;23.264;2024-02-26T01:36:30;22.67;;;11.07;;
6344;SDS011;3205;42.666;23.264;2024-02-26T01:38:57;17.97;;;10.67;;
6344;SDS011;3205;42.666;23.264;2024-02-26T01:41:23;16.80;;;10.73;;
6344;SDS011;3205;42.666;23.264;2024-02-26T01:43:50;18.47;;;11.30;;
6344;SDS011;3205;42.666;23.264;2024-02-26T01:46:16;21.43;;;11.80;;
6344;SDS011;3205;42.666;23.264;2024-02-26T01:48:43;17.20;;;11.17;;
6344;SDS011;3205;42.666;23.264;2024-02-26T01:51:15;22.53;;;12.30;;
6344;SDS011;3205;42.666;23.264;2024-02-26T01:53:42;20.07;;;12.37;;
6344;SDS011;3205;42.666;23.264;2024-02-26T01:56:10;24.37;;;12.20;;
6344;SDS011;3205;42.666;23.264;2024-02-26T01:58:37;19.53;;;11.60;;
6344;SDS011;3205;42.666;23.264;2024-02-26T02:01:04;17.83;;;11.53;;
6344;SDS011;3205;42.666;23.264;2024-02-26T02:03:31;25.07;;;12.67;;
6344;SDS011;3205;42.666;23.264;2024-02-26T02:05:57;26.07;;;12.17;;
6344;SDS011;3205;42.666;23.264;2024-02-26T02:08:23;21.37;;;11.17;;
6344;SDS011;3205;42.666;23.264;2024-02-26T02:10:50;23.17;;;13.67;;
6344;SDS011;3205;42.666;23.264;2024-02-26T02:13:17;25.50;;;13.23;;
6344;SDS011;3205;42.666;23.264;2024-02-26T02:15:43;18.90;;;12.27;;
6344;SDS011;3205;42.666;23.264;2024-02-26T02:18:09;20.90;;;12.87;;
6344;SDS011;3205;42.666;23.264;2024-02-26T02:20:37;21.83;;;13.53;;
6344;SDS011;3205;42.666;23.264;2024-02-26T02:23:03;21.33;;;12.73;;
6344;SDS011;3205;42.666;23.264;2024-02-26T02:25:30;23.23;;;12.87;;
6344;SDS011;3205;42.666;23.264;2024-02-26T02:27:56;20.97;;;13.33;;
6344;SDS011;3205;42.666;23.264;2024-02-26T02:30:24;20.70;;;12.33;;
6344;SDS011;3205;42.666;23.264;2024-02-26T02:32:53;21.90;;;12.10;;
6344;SDS011;3205;42.666;23.264;2024-02-26T02:35:20;25.33;;;12.90;;
6344;SDS011;3205;42.666;23.264;2024-02-26T02:37:46;22.83;;;12.90;;
6344;SDS011;3205;42.666;23.264;2024-02-26T02:40:13;25.90;;;13.27;;
6344;SDS011;3205;42.666;23.264;2024-02-26T02:42:39;22.47;;;12.73;;
6344;SDS011;3205;42.666;23.264;2024-02-26T02:45:06;20.87;;;12.73;;
6344;SDS011;3205;42.666;23.264;2024-02-26T02:47:35;23.60;;;13.33;;
6344;SDS011;3205;42.666;23.264;2024-02-26T02:50:02;23.83;;;13.70;;
6344;SDS011;3205;42.666;23.264;2024-02-26T02:52:28;21.43;;;12.70;;
6344;SDS011;3205;42.666;23.264;2024-02-26T02:54:55;24.63;;;13.73;;
6344;SDS011;3205;42.666;23.264;2024-02-26T02:57:21;23.60;;;14.03;;
6344;SDS011;3205;42.666;23.264;2024-02-26T02:59:48;22.97;;;13.00;;
6344;SDS011;3205;42.666;23.264;2024-02-26T03:05:38;22.97;;;13.70;;
6344;SDS011;3205;42.666;23.264;2024-02-26T03:08:04;21.00;;;13.83;;
6344;SDS011;3205;42.666;23.264;2024-02-26T03:10:32;25.30;;;14.17;;
6344;SDS011;3205;42.666;23.264;2024-02-26T03:12:58;27.63;;;15.07;;
6344;SDS011;3205;42.666;23.264;2024-02-26T03:15:24;22.07;;;12.87;;
6344;SDS011;3205;42.666;23.264;2024-02-26T03:17:50;22.37;;;13.60;;
6344;SDS011;3205;42.666;23.264;2024-02-26T03:20:17;25.43;;;14.00;;
6344;SDS011;3205;42.666;23.264;2024-02-26T03:22:44;29.67;;;13.57;;
6344;SDS011;3205;42.666;23.264;2024-02-26T03:25:11;24.23;;;13.37;;
6344;SDS011;3205;42.666;23.264;2024-02-26T03:27:38;23.63;;;14.27;;
6344;SDS011;3205;42.666;23.264;2024-02-26T03:30:05;26.87;;;13.93;;
6344;SDS011;3205;42.666;23.264;2024-02-26T03:32:32;26.63;;;14.23;;
6344;SDS011;3205;42.666;23.264;2024-02-26T03:34:58;25.60;;;14.70;;
6344;SDS011;3205;42.666;23.264;2024-02-26T03:37:25;27.87;;;15.77;;
6344;SDS011;3205;42.666;23.264;2024-02-26T03:39:51;25.20;;;14.80;;
6344;SDS011;3205;42.666;23.264;2024-02-26T03:42:17;21.43;;;14.13;;
6344;SDS011;3205;42.666;23.264;2024-02-26T03:44:45;27.60;;;14.83;;
6344;SDS011;3205;42.666;23.264;2024-02-26T03:47:11;30.97;;;15.60;;
6344;SDS011;3205;42.666;23.264;2024-02-26T03:49:37;25.00;;;15.37;;
6344;SDS011;3205;42.666;23.264;2024-02-26T03:52:04;27.37;;;14.80;;
6344;SDS011;3205;42.666;23.264;2024-02-26T03:54:30;22.57;;;14.50;;
6344;SDS011;3205;42.666;23.264;2024-02-26T03:56:57;26.93;;;14.40;;
6344;SDS011;3205;42.666;23.264;2024-02-26T03:59:23;34.30;;;15.93;;
6344;SDS011;3205;42.666;23.264;2024-02-26T04:01:50;25.87;;;14.83;;
6344;SDS011;3205;42.666;23.264;2024-02-26T04:04:17;28.03;;;15.33;;
6344;SDS011;3205;42.666;23.264;2024-02-26T04:06:44;29.40;;;16.27;;
6344;SDS011;3205;42.666;23.264;2024-02-26T04:09:10;24.53;;;15.03;;
6344;SDS011;3205;42.666;23.264;2024-02-26T04:11:37;26.73;;;15.20;;
6344;SDS011;3205;42.666;23.264;2024-02-26T04:14:03;22.43;;;14.10;;
6344;SDS011;3205;42.666;23.264;2024-02-26T04:16:31;32.20;;;16.60;;
6344;SDS011;3205;42.666;23.264;2024-02-26T04:18:58;32.37;;;17.60;;
6344;SDS011;3205;42.666;23.264;2024-02-26T04:21:24;30.60;;;17.37;;
6344;SDS011;3205;42.666;23.264;2024-02-26T04:23:50;33.50;;;18.10;;
6344;SDS011;3205;42.666;23.264;2024-02-26T04:26:20;34.47;;;18.27;;
6344;SDS011;3205;42.666;23.264;2024-02-26T04:28:46;35.33;;;19.00;;
6344;SDS011;3205;42.666;23.264;2024-02-26T04:31:14;54.77;;;30.83;;
6344;SDS011;3205;42.666;23.264;2024-02-26T04:33:41;32.63;;;18.13;;
6344;SDS011;3205;42.666;23.264;2024-02-26T04:36:12;32.73;;;17.60;;
6344;SDS011;3205;42.666;23.264;2024-02-26T04:38:39;34.70;;;18.43;;
6344;SDS011;3205;42.666;23.264;2024-02-26T04:41:05;29.47;;;16.73;;
6344;SDS011;3205;42.666;23.264;2024-02-26T04:43:31;30.93;;;16.17;;
6344;SDS011;3205;42.666;23.264;2024-02-26T04:45:57;29.80;;;16.33;;
6344;SDS011;3205;42.666;23.264;2024-02-26T04:48:24;31.00;;;16.73;;
6344;SDS011;3205;42.666;23.264;2024-02-26T04:50:50;25.23;;;14.63;;
6344;SDS011;3205;42.666;23.264;2024-02-26T04:53:17;27.23;;;15.23;;
6344;SDS011;3205;42.666;23.264;2024-02-26T04:55:43;27.07;;;14.67;;
6344;SDS011;3205;42.666;23.264;2024-02-26T04:58:28;29.13;;;15.13;;
6344;SDS011;3205;42.666;23.264;2024-02-26T05:00:54;26.87;;;15.03;;
6344;SDS011;3205;42.666;23.264;2024-02-26T05:03:21;26.23;;;15.30;;
6344;SDS011;3205;42.666;23.264;2024-02-26T05:05:47;29.97;;;16.30;;
6344;SDS011;3205;42.666;23.264;2024-02-26T05:08:13;28.70;;;16.03;;
6344;SDS011;3205;42.666;23.264;2024-02-26T05:10:40;30.77;;;16.10;;
6344;SDS011;3205;42.666;23.264;2024-02-26T05:13:08;37.77;;;16.83;;
6344;SDS011;3205;42.666;23.264;2024-02-26T05:15:35;30.47;;;16.87;;
6344;SDS011;3205;42.666;23.264;2024-02-26T05:18:01;33.50;;;18.53;;
6344;SDS011;3205;42.666;23.264;2024-02-26T05:20:28;31.20;;;17.83;;
6344;SDS011;3205;42.666;23.264;2024-02-26T05:22:54;30.70;;;17.17;;
6344;SDS011;3205;42.666;23.264;2024-02-26T05:25:20;32.03;;;18.13;;
6344;SDS011;3205;42.666;23.264;2024-02-26T05:27:47;38.17;;;18.57;;
6344;SDS011;3205;42.666;23.264;2024-02-26T05:30:14;33.37;;;17.33;;
6344;SDS011;3205;42.666;23.264;2024-02-26T05:32:40;37.07;;;19.23;;
6344;SDS011;3205;42.666;23.264;2024-02-26T05:35:07;31.80;;;18.47;;
6344;SDS011;3205;42.666;23.264;2024-02-26T05:37:34;27.97;;;18.43;;
6344;SDS011;3205;42.666;23.264;2024-02-26T05:40:00;36.40;;;19.23;;
6344;SDS011;3205;42.666;23.264;2024-02-26T05:42:26;33.93;;;19.00;;
6344;SDS011;3205;42.666;23.264;2024-02-26T05:44:53;38.90;;;19.90;;
6344;SDS011;3205;42.666;23.264;2024-02-26T05:47:19;40.73;;;21.07;;
6344;SDS011;3205;42.666;23.264;2024-02-26T05:49:46;39.47;;;22.73;;
6344;SDS011;3205;42.666;23.264;2024-02-26T05:52:12;53.13;;;24.90;;
6344;SDS011;3205;42.666;23.264;2024-02-26T05:54:38;39.57;;;21.73;;
6344;SDS011;3205;42.666;23.264;2024-02-26T05:57:04;39.07;;;22.00;;
6344;SDS011;3205;42.666;23.264;2024-02-26T05:59:31;39.17;;;22.47;;
6344;SDS011;3205;42.666;23.264;2024-02-26T06:01:58;43.47;;;23.37;;
6344;SDS011;3205;42.666;23.264;2024-02-26T06:04:24;40.60;;;21.53;;
6344;SDS011;3205;42.666;23.264;2024-02-26T06:06:51;39.10;;;21.77;;
6344;SDS011;3205;42.666;23.264;2024-02-26T06:09:17;40.37;;;22.20;;
6344;SDS011;3205;42.666;23.264;2024-02-26T06:11:43;39.37;;;21.37;;
6344;SDS011;3205;42.666;23.264;2024-02-26T06:14:09;36.03;;;21.20;;
6344;SDS011;3205;42.666;23.264;2024-02-26T06:16:38;38.07;;;21.60;;
6344;SDS011;3205;42.666;23.264;2024-02-26T06:19:05;39.10;;;23.70;;
6344;SDS011;3205;42.666;23.264;2024-02-26T06:21:31;44.27;;;21.90;;
6344;SDS011;3205;42.666;23.264;2024-02-26T06:23:58;39.23;;;21.40;;
6344;SDS011;3205;42.666;23.264;2024-02-26T06:26:24;38.93;;;23.53;;
6344;SDS011;3205;42.666;23.264;2024-02-26T06:28:53;44.40;;;21.70;;
6344;SDS011;3205;42.666;23.264;2024-02-26T06:31:21;39.43;;;22.13;;
6344;SDS011;3205;42.666;23.264;2024-02-26T06:33:48;39.07;;;22.53;;
6344;SDS011;3205;42.666;23.264;2024-02-26T06:36:15;42.17;;;24.03;;
6344;SDS011;3205;42.666;23.264;2024-02-26T06:38:41;36.87;;;22.40;;
6344;SDS011;3205;42.666;23.264;2024-02-26T06:41:08;44.33;;;24.30;;
6344;SDS011;3205;42.666;23.264;2024-02-26T06:43:34;50.57;;;25.47;;
6344;SDS011;3205;42.666;23.264;2024-02-26T06:46:01;44.13;;;23.87;;
6344;SDS011;3205;42.666;23.264;2024-02-26T06:48:27;46.47;;;24.40;;
6344;SDS011;3205;42.666;23.264;2024-02-26T06:50:55;48.57;;;25.10;;
6344;SDS011;3205;42.666;23.264;2024-02-26T06:53:22;41.13;;;23.00;;
6344;SDS011;3205;42.666;23.264;2024-02-26T06:55:49;43.97;;;24.03;;
6344;SDS011;3205;42.666;23.264;2024-02-26T06:58:15;41.50;;;24.23;;
6344;SDS011;3205;42.666;23.264;2024-02-26T07:00:41;44.57;;;26.67;;
6344;SDS011;3205;42.666;23.264;2024-02-26T07:03:08;47.93;;;27.00;;
6344;SDS011;3205;42.666;23.264;2024-02-26T07:05:34;44.13;;;26.63;;
6344;SDS011;3205;42.666;23.264;2024-02-26T07:08:00;52.37;;;27.07;;
6344;SDS011;3205;42.666;23.264;2024-02-26T07:10:27;49.40;;;28.73;;
6344;SDS011;3205;42.666;23.264;2024-02-26T07:12:53;57.23;;;27.90;;
6344;SDS011;3205;42.666;23.264;2024-02-26T07:15:20;61.27;;;27.43;;
6344;SDS011;3205;42.666;23.264;2024-02-26T07:17:46;49.27;;;25.83;;
6344;SDS011;3205;42.666;23.264;2024-02-26T07:20:14;55.90;;;27.90;;
6344;SDS011;3205;42.666;23.264;2024-02-26T07:22:40;49.07;;;27.57;;
6344;SDS011;3205;42.666;23.264;2024-02-26T07:25:07;45.60;;;27.97;;
6344;SDS011;3205;42.666;23.264;2024-02-26T07:27:38;48.87;;;29.00;;
6344;SDS011;3205;42.666;23.264;2024-02-26T07:30:06;46.30;;;28.30;;
6344;SDS011;3205;42.666;23.264;2024-02-26T07:32:34;51.97;;;29.07;;
6344;SDS011;3205;42.666;23.264;2024-02-26T07:35:01;44.60;;;26.90;;
6344;SDS011;3205;42.666;23.264;2024-02-26T07:37:28;43.00;;;26.77;;
6344;SDS011;3205;42.666;23.264;2024-02-26T07:39:54;49.60;;;26.93;;
6344;SDS011;3205;42.666;23.264;2024-02-26T07:42:20;42.53;;;25.97;;
6344;SDS011;3205;42.666;23.264;2024-02-26T07:44:47;45.17;;;26.10;;
6344;SDS011;3205;42.666;23.264;2024-02-26T07:47:14;44.27;;;26.57;;
6344;SDS011;3205;42.666;23.264;2024-02-26T07:49:40;47.97;;;27.00;;
6344;SDS011;3205;42.666;23.264;2024-02-26T07:52:06;38.90;;;25.10;;
6344;SDS011;3205;42.666;23.264;2024-02-26T07:54:32;50.93;;;26.37;;
6344;SDS011;3205;42.666;23.264;2024-02-26T07:56:59;42.53;;;26.00;;
6344;SDS011;3205;42.666;23.264;2024-02-26T07:59:26;46.27;;;26.07;;
6344;SDS011;3205;42.666;23.264;2024-02-26T08:01:53;44.83;;;25.93;;
6344;SDS011;3205;42.666;23.264;2024-02-26T08:04:19;39.87;;;24.73;;
6344;SDS011;3205;42.666;23.264;2024-02-26T08:06:45;47.13;;;25.80;;
6344;SDS011;3205;42.666;23.264;2024-02-26T08:09:12;44.00;;;29.07;;
6344;SDS011;3205;42.666;23.264;2024-02-26T08:11:38;52.33;;;29.17;;
6344;SDS011;3205;42.666;23.264;2024-02-26T08:14:04;53.57;;;27.33;;
6344;SDS011;3205;42.666;23.264;2024-02-26T08:16:31;46.03;;;29.47;;
6344;SDS011;3205;42.666;23.264;2024-02-26T08:18:58;48.37;;;27.97;;
6344;SDS011;3205;42.666;23.264;2024-02-26T08:21:24;52.27;;;29.43;;
6344;SDS011;3205;42.666;23.264;2024-02-26T08:23:50;54.33;;;30.57;;
6344;SDS011;3205;42.666;23.264;2024-02-26T08:26:16;53.17;;;31.20;;
6344;SDS011;3205;42.666;23.264;2024-02-26T08:28:46;54.93;;;31.07;;
6344;SDS011;3205;42.666;23.264;2024-02-26T08:31:13;60.57;;;30.67;;
6344;SDS011;3205;42.666;23.264;2024-02-26T08:33:39;58.03;;;30.07;;
6344;SDS011;3205;42.666;23.264;2024-02-26T08:36:06;48.47;;;29.53;;
6344;SDS011;3205;42.666;23.264;2024-02-26T08:38:33;50.17;;;28.80;;
6344;SDS011;3205;42.666;23.264;2024-02-26T08:41:00;54.10;;;29.07;;
6344;SDS011;3205;42.666;23.264;2024-02-26T08:43:27;53.70;;;29.70;;
6344;SDS011;3205;42.666;23.264;2024-02-26T08:45:53;57.27;;;29.03;;
6344;SDS011;3205;42.666;23.264;2024-02-26T08:48:19;56.23;;;29.53;;
6344;SDS011;3205;42.666;23.264;2024-02-26T08:50:46;53.77;;;29.80;;
6344;SDS011;3205;42.666;23.264;2024-02-26T08:53:13;54.50;;;32.03;;
6344;SDS011;3205;42.666;23.264;2024-02-26T08:55:39;51.00;;;28.70;;
6344;SDS011;3205;42.666;23.264;2024-02-26T08:58:05;48.17;;;27.87;;
6344;SDS011;3205;42.666;23.264;2024-02-26T09:00:31;48.27;;;27.37;;
6344;SDS011;3205;42.666;23.264;2024-02-26T09:02:58;48.27;;;28.03;;
6344;SDS011;3205;42.666;23.264;2024-02-26T09:05:25;43.27;;;26.27;;
6344;SDS011;3205;42.666;23.264;2024-02-26T09:07:51;56.33;;;26.83;;
6344;SDS011;3205;42.666;23.264;2024-02-26T09:10:18;46.60;;;26.33;;
6344;SDS011;3205;42.666;23.264;2024-02-26T09:12:44;51.47;;;28.20;;
6344;SDS011;3205;42.666;23.264;2024-02-26T09:15:11;48.23;;;25.90;;
6344;SDS011;3205;42.666;23.264;2024-02-26T09:17:37;47.90;;;27.13;;
6344;SDS011;3205;42.666;23.264;2024-02-26T09:20:04;38.00;;;24.30;;
6344;SDS011;3205;42.666;23.264;2024-02-26T09:22:34;47.30;;;24.87;;
6344;SDS011;3205;42.666;23.264;2024-02-26T09:25:03;39.73;;;23.27;;
6344;SDS011;3205;42.666;23.264;2024-02-26T09:27:31;42.03;;;24.37;;
6344;SDS011;3205;42.666;23.264;2024-02-26T09:29:57;41.87;;;23.60;;
6344;SDS011;3205;42.666;23.264;2024-02-26T09:32:24;38.47;;;23.47;;
6344;SDS011;3205;42.666;23.264;2024-02-26T09:34:50;44.73;;;23.77;;
6344;SDS011;3205;42.666;23.264;2024-02-26T09:37:16;40.23;;;24.13;;
6344;SDS011;3205;42.666;23.264;2024-02-26T09:39:43;34.37;;;22.57;;
6344;SDS011;3205;42.666;23.264;2024-02-26T09:42:09;36.37;;;22.10;;
6344;SDS011;3205;42.666;23.264;2024-02-26T09:44:39;39.13;;;22.10;;
6344;SDS011;3205;42.666;23.264;2024-02-26T09:47:07;32.80;;;19.40;;
6344;SDS011;3205;42.666;23.264;2024-02-26T09:49:36;38.30;;;22.03;;
6344;SDS011;3205;42.666;23.264;2024-02-26T09:52:03;33.97;;;21.37;;
6344;SDS011;3205;42.666;23.264;2024-02-26T09:54:30;56.30;;;22.00;;
6344;SDS011;3205;42.666;23.264;2024-02-26T09:56:59;26.30;;;15.80;;
6344;SDS011;3205;42.666;23.264;2024-02-26T09:59:28;10.93;;;7.27;;
6344;SDS011;3205;42.666;23.264;2024-02-26T10:02:01;14.00;;;6.13;;
6344;SDS011;3205;42.666;23.264;2024-02-26T10:04:29;9.70;;;6.40;;
6344;SDS011;3205;42.666;23.264;2024-02-26T10:06:57;7.80;;;6.03;;
6344;SDS011;3205;42.666;23.264;2024-02-26T10:09:26;8.33;;;6.23;;
6344;SDS011;3205;42.666;23.264;2024-02-26T10:11:53;12.87;;;6.30;;
6344;SDS011;3205;42.666;23.264;2024-02-26T10:14:20;11.97;;;6.20;;
6344;SDS011;3205;42.666;23.264;2024-02-26T10:16:48;13.27;;;7.40;;
6344;SDS011;3205;42.666;23.264;2024-02-26T10:19:25;9.77;;;6.30;;
6344;SDS011;3205;42.666;23.264;2024-02-26T10:21:53;11.30;;;6.13;;
6344;SDS011;3205;42.666;23.264;2024-02-26T10:24:22;11.37;;;5.97;;
6344;SDS011;3205;42.666;23.264;2024-02-26T10:26:48;7.47;;;5.90;;
6344;SDS011;3205;42.666;23.264;2024-02-26T10:29:18;10.40;;;5.67;;
6344;SDS011;3205;42.666;23.264;2024-02-26T10:31:44;15.77;;;6.47;;
6344;SDS011;3205;42.666;23.264;2024-02-26T10:34:11;8.73;;;5.40;;
6344;SDS011;3205;42.666;23.264;2024-02-26T10:36:38;14.83;;;6.47;;
6344;SDS011;3205;42.666;23.264;2024-02-26T10:39:06;9.13;;;5.63;;
6344;SDS011;3205;42.666;23.264;2024-02-26T10:41:32;8.53;;;5.43;;
6344;SDS011;3205;42.666;23.264;2024-02-26T10:43:59;12.10;;;5.53;;
6344;SDS011;3205;42.666;23.264;2024-02-26T10:46:25;8.53;;;5.93;;
6344;SDS011;3205;42.666;23.264;2024-02-26T10:48:52;8.80;;;5.13;;
6344;SDS011;3205;42.666;23.264;2024-02-26T10:51:20;5.17;;;4.53;;
6344;SDS011;3205;42.666;23.264;2024-02-26T10:53:51;8.30;;;5.17;;
6344;SDS011;3205;42.666;23.264;2024-02-26T10:56:24;10.77;;;5.33;;
6344;SDS011;3205;42.666;23.264;2024-02-26T10:58:52;8.57;;;5.43;;
6344;SDS011;3205;42.666;23.264;2024-02-26T11:01:19;12.30;;;5.63;;
6344;SDS011;3205;42.666;23.264;2024-02-26T11:03:46;8.10;;;5.83;;
6344;SDS011;3205;42.666;23.264;2024-02-26T11:06:15;12.67;;;5.90;;
6344;SDS011;3205;42.666;23.264;2024-02-26T11:08:43;10.50;;;5.97;;
6344;SDS011;3205;42.666;23.264;2024-02-26T11:11:11;11.70;;;5.13;;
6344;SDS011;3205;42.666;23.264;2024-02-26T11:13:40;8.93;;;5.70;;
6344;SDS011;3205;42.666;23.264;2024-02-26T11:16:10;9.80;;;5.70;;
6344;SDS011;3205;42.666;23.264;2024-02-26T11:18:37;7.93;;;5.20;;
6344;SDS011;3205;42.666;23.264;2024-02-26T11:21:07;9.23;;;5.53;;
6344;SDS011;3205;42.666;23.264;2024-02-26T11:23:34;8.03;;;5.37;;
6344;SDS011;3205;42.666;23.264;2024-02-26T11:26:02;12.17;;;6.37;;
6344;SDS011;3205;42.666;23.264;2024-02-26T11:28:32;9.90;;;5.67;;
6344;SDS011;3205;42.666;23.264;2024-02-26T11:31:00;9.63;;;5.80;;
6344;SDS011;3205;42.666;23.264;2024-02-26T11:33:29;9.80;;;5.23;;
6344;SDS011;3205;42.666;23.264;2024-02-26T11:35:56;8.83;;;5.50;;
6344;SDS011;3205;42.666;23.264;2024-02-26T11:38:24;11.33;;;5.70;;
6344;SDS011;3205;42.666;23.264;2024-02-26T11:40:53;11.03;;;5.37;;
6344;SDS011;3205;42.666;23.264;2024-02-26T11:43:23;13.50;;;5.90;;
6344;SDS011;3205;42.666;23.264;2024-02-26T11:46:18;9.93;;;5.70;;
6344;SDS011;3205;42.666;23.264;2024-02-26T11:48:50;10.57;;;6.03;;
6344;SDS011;3205;42.666;23.264;2024-02-26T11:51:17;11.30;;;5.33;;
6344;SDS011;3205;42.666;23.264;2024-02-26T11:53:45;15.27;;;5.60;;
6344;SDS011;3205;42.666;23.264;2024-02-26T11:56:15;9.17;;;5.70;;
6344;SDS011;3205;42.666;23.264;2024-02-26T11:58:47;11.47;;;6.17;;
6344;SDS011;3205;42.666;23.264;2024-02-26T12:04:07;7.67;;;5.47;;
6344;SDS011;3205;42.666;23.264;2024-02-26T12:06:53;7.90;;;4.87;;
6344;SDS011;3205;42.666;23.264;2024-02-26T12:09:31;15.23;;;5.43;;
6344;SDS011;3205;42.666;23.264;2024-02-26T12:11:58;8.20;;;5.10;;
6344;SDS011;3205;42.666;23.264;2024-02-26T12:14:26;6.47;;;4.87;;
6344;SDS011;3205;42.666;23.264;2024-02-26T12:16:53;6.63;;;4.60;;
6344;SDS011;3205;42.666;23.264;2024-02-26T12:19:23;5.47;;;4.77;;
6344;SDS011;3205;42.666;23.264;2024-02-26T12:21:50;5.67;;;4.60;;
6344;SDS011;3205;42.666;23.264;2024-02-26T12:24:17;6.20;;;4.00;;
6344;SDS011;3205;42.666;23.264;2024-02-26T12:26:45;7.57;;;5.33;;
6344;SDS011;3205;42.666;23.264;2024-02-26T12:29:12;7.03;;;4.57;;
6344;SDS011;3205;42.666;23.264;2024-02-26T12:31:38;5.87;;;4.47;;
6344;SDS011;3205;42.666;23.264;2024-02-26T12:34:06;5.57;;;3.97;;
6344;SDS011;3205;42.666;23.264;2024-02-26T12:36:34;8.87;;;4.87;;
6344;SDS011;3205;42.666;23.264;2024-02-26T12:39:02;10.63;;;5.40;;
6344;SDS011;3205;42.666;23.264;2024-02-26T12:41:30;6.80;;;5.03;;
6344;SDS011;3205;42.666;23.264;2024-02-26T12:43:57;6.17;;;5.27;;
6344;SDS011;3205;42.666;23.264;2024-02-26T12:46:24;7.93;;;4.97;;
6344;SDS011;3205;42.666;23.264;2024-02-26T12:48:50;9.93;;;4.87;;
6344;SDS011;3205;42.666;23.264;2024-02-26T12:51:17;6.83;;;3.93;;
6344;SDS011;3205;42.666;23.264;2024-02-26T12:53:44;8.43;;;4.57;;
6344;SDS011;3205;42.666;23.264;2024-02-26T12:56:11;9.27;;;4.83;;
6344;SDS011;3205;42.666;23.264;2024-02-26T12:58:38;8.73;;;4.90;;
6344;SDS011;3205;42.666;23.264;2024-02-26T13:01:05;8.90;;;4.40;;
6344;SDS011;3205;42.666;23.264;2024-02-26T13:03:32;6.37;;;4.83;;
6344;SDS011;3205;42.666;23.264;2024-02-26T13:06:00;8.70;;;4.90;;
6344;SDS011;3205;42.666;23.264;2024-02-26T13:08:28;6.10;;;4.87;;
6344;SDS011;3205;42.666;23.264;2024-02-26T13:10:54;7.43;;;4.63;;
6344;SDS011;3205;42.666;23.264;2024-02-26T13:13:21;10.57;;;4.97;;
6344;SDS011;3205;42.666;23.264;2024-02-26T13:15:48;12.03;;;4.93;;
6344;SDS011;3205;42.666;23.264;2024-02-26T13:18:14;6.07;;;4.30;;
6344;SDS011;3205;42.666;23.264;2024-02-26T13:20:41;13.13;;;4.20;;
6344;SDS011;3205;42.666;23.264;2024-02-26T13:23:08;8.30;;;4.73;;
6344;SDS011;3205;42.666;23.264;2024-02-26T13:25:37;9.73;;;4.00;;
6344;SDS011;3205;42.666;23.264;2024-02-26T13:28:07;6.50;;;4.20;;
6344;SDS011;3205;42.666;23.264;2024-02-26T13:30:34;8.17;;;3.67;;
6344;SDS011;3205;42.666;23.264;2024-02-26T13:33:07;6.60;;;4.30;;
6344;SDS011;3205;42.666;23.264;2024-02-26T13:35:34;7.70;;;4.70;;
6344;SDS011;3205;42.666;23.264;2024-02-26T13:38:01;4.50;;;4.10;;
6344;SDS011;3205;42.666;23.264;2024-02-26T13:40:28;6.20;;;4.23;;
6344;SDS011;3205;42.666;23.264;2024-02-26T13:42:55;5.43;;;3.97;;
6344;SDS011;3205;42.666;23.264;2024-02-26T13:45:22;8.07;;;4.27;;
6344;SDS011;3205;42.666;23.264;2024-02-26T13:47:48;5.77;;;4.20;;
6344;SDS011;3205;42.666;23.264;2024-02-26T13:50:14;9.67;;;3.67;;
6344;SDS011;3205;42.666;23.264;2024-02-26T13:52:41;6.27;;;3.90;;
6344;SDS011;3205;42.666;23.264;2024-02-26T13:55:08;10.00;;;3.60;;
6344;SDS011;3205;42.666;23.264;2024-02-26T13:57:34;4.67;;;3.83;;
6344;SDS011;3205;42.666;23.264;2024-02-26T14:00:01;8.40;;;4.40;;
6344;SDS011;3205;42.666;23.264;2024-02-26T14:02:28;9.13;;;4.10;;
6344;SDS011;3205;42.666;23.264;2024-02-26T14:04:55;6.20;;;4.20;;
6344;SDS011;3205;42.666;23.264;2024-02-26T14:07:21;8.57;;;4.20;;
6344;SDS011;3205;42.666;23.264;2024-02-26T14:09:48;9.87;;;4.43;;
6344;SDS011;3205;42.666;23.264;2024-02-26T14:12:15;6.30;;;4.83;;
6344;SDS011;3205;42.666;23.264;2024-02-26T14:14:41;7.10;;;4.13;;
6344;SDS011;3205;42.666;23.264;2024-02-26T14:17:08;9.93;;;5.00;;
6344;SDS011;3205;42.666;23.264;2024-02-26T14:19:35;9.07;;;3.90;;
6344;SDS011;3205;42.666;23.264;2024-02-26T14:22:03;13.90;;;3.77;;
6344;SDS011;3205;42.666;23.264;2024-02-26T14:24:29;5.23;;;4.27;;
6344;SDS011;3205;42.666;23.264;2024-02-26T14:26:55;7.70;;;3.50;;
6344;SDS011;3205;42.666;23.264;2024-02-26T14:29:21;6.10;;;3.93;;
6344;SDS011;3205;42.666;23.264;2024-02-26T14:31:48;5.43;;;3.60;;
6344;SDS011;3205;42.666;23.264;2024-02-26T14:34:15;7.77;;;3.67;;
6344;SDS011;3205;42.666;23.264;2024-02-26T14:36:43;11.07;;;4.30;;
6344;SDS011;3205;42.666;23.264;2024-02-26T14:39:10;10.30;;;4.73;;
6344;SDS011;3205;42.666;23.264;2024-02-26T14:41:37;7.77;;;4.43;;
6344;SDS011;3205;42.666;23.264;2024-02-26T14:44:04;7.93;;;5.13;;
6344;SDS011;3205;42.666;23.264;2024-02-26T14:46:30;7.37;;;4.27;;